Airport Name : Melilla

Other Name : Melilla

ICAO : GEML

IATA : MLN

FAA :

Latitude : 35.279817

Longitude : -2.956256

Country : Spain

Local Date and Time : 28 Feb 2021 01:08

 

TAF (Terminal Aerodrome Forecast)

TAF GEML 272000Z 2721/2821 06009KT 9999 SCT015 BKN025 TX17/2814Z TN14/2806Z PROB40 TEMPO 2721/2821 BKN014 PROB30 TEMPO 2800/2812 4000 -RA BKN008

 

METAR (METeorological Aerodrome Report)

GEML 280000Z AUTO 07009KT 020V120 9999 FEW014 BKN024 OVC030 15/11 Q1020

GEML 272330Z AUTO 07009KT 030V100 9999 FEW015 BKN026 OVC032 15/11 Q1020

GEML 272300Z AUTO 07010KT 040V110 9999 SCT015 OVC028 15/11 Q1020

GEML 272230Z AUTO 07009KT 030V110 9999 FEW016 SCT023 OVC030 15/11 Q1020

GEML 272200Z AUTO 07009KT 020V100 9999 FEW014 OVC033 15/11 Q1020

GEML 272130Z AUTO 08009KT 040V120 9999 FEW016 OVC032 15/11 Q1020

GEML 272100Z AUTO 08010KT 030V110 9999 OVC031 15/12 Q1020

GEML 272030Z AUTO 07010KT 030V110 9999 BKN032 15/11 Q1020

To Charter a Jet Click here.